createdAt,value
2018-04-22T00:01:24.342Z,11.43
2018-04-22T00:03:51.780Z,11.30
2018-04-22T00:06:19.223Z,12.10
2018-04-22T00:08:46.759Z,13.20
2018-04-22T00:11:14.199Z,15.80
2018-04-22T00:13:41.747Z,12.97
2018-04-22T00:16:09.197Z,12.30
2018-04-22T00:18:36.991Z,14.57
2018-04-22T00:21:04.444Z,16.33
2018-04-22T00:23:31.913Z,17.70
2018-04-22T00:25:59.377Z,13.90
2018-04-22T00:28:27.448Z,12.70
2018-04-22T00:30:54.885Z,17.13
2018-04-22T00:33:22.606Z,12.13
2018-04-22T00:35:50.260Z,12.73
2018-04-22T00:38:17.781Z,14.30
2018-04-22T00:40:45.231Z,14.70
2018-04-22T00:43:13.157Z,14.73
2018-04-22T00:45:41.009Z,16.23
2018-04-22T00:48:08.470Z,13.83
2018-04-22T00:50:35.924Z,12.87
2018-04-22T00:53:03.388Z,15.73
2018-04-22T00:55:31.266Z,13.27
2018-04-22T00:57:58.968Z,11.90
2018-04-22T01:00:26.416Z,11.23
2018-04-22T01:02:54.075Z,15.07
2018-04-22T01:05:21.631Z,14.40
2018-04-22T01:07:49.083Z,12.03
2018-04-22T01:10:16.536Z,11.63
2018-04-22T01:12:43.989Z,14.10
2018-04-22T01:15:11.447Z,13.80
2018-04-22T01:17:39.100Z,15.57
2018-04-22T01:20:06.817Z,15.50
2018-04-22T01:22:34.299Z,11.47
2018-04-22T01:25:01.850Z,12.80
2018-04-22T01:27:29.323Z,11.97
2018-04-22T01:29:57.245Z,15.03
2018-04-22T01:32:24.685Z,12.73
2018-04-22T01:34:52.904Z,13.30
2018-04-22T01:37:20.678Z,11.97
2018-04-22T01:39:48.404Z,14.13
2018-04-22T01:42:16.011Z,12.63
2018-04-22T01:44:43.458Z,13.47
2018-04-22T01:47:10.931Z,12.60
2018-04-22T01:49:38.686Z,10.03
2018-04-22T01:52:06.161Z,14.20
2018-04-22T01:54:33.612Z,14.30
2018-04-22T01:57:01.070Z,11.10
2018-04-22T01:59:28.521Z,22.20
2018-04-22T02:01:55.976Z,10.47
2018-04-22T02:04:23.419Z,18.47
2018-04-22T02:06:51.628Z,11.90
2018-04-22T02:09:19.080Z,15.07
2018-04-22T02:11:46.564Z,13.87
2018-04-22T02:14:14.017Z,12.20
2018-04-22T02:16:41.489Z,20.33
2018-04-22T02:19:09.315Z,13.60
2018-04-22T02:21:36.771Z,12.30
2018-04-22T02:24:04.235Z,16.47
2018-04-22T02:26:32.452Z,13.00
2018-04-22T02:28:59.911Z,16.30
2018-04-22T02:31:27.361Z,12.07
2018-04-22T02:33:54.812Z,17.97
2018-04-22T02:36:22.693Z,19.27
2018-04-22T02:38:50.891Z,12.97
2018-04-22T02:41:18.363Z,12.50
2018-04-22T02:43:45.815Z,17.87
2018-04-22T02:46:13.266Z,13.30
2018-04-22T02:48:41.050Z,11.30
2018-04-22T02:51:08.704Z,13.30
2018-04-22T02:53:36.185Z,11.93
2018-04-22T02:56:03.635Z,16.27
2018-04-22T02:58:31.089Z,12.43
2018-04-22T03:00:58.873Z,12.80
2018-04-22T03:03:26.352Z,14.77
2018-04-22T03:05:53.932Z,14.63
2018-04-22T03:08:21.770Z,12.57
2018-04-22T03:10:49.250Z,13.23
2018-04-22T03:13:16.726Z,14.40
2018-04-22T03:15:44.165Z,16.00
2018-04-22T03:18:11.648Z,14.40
2018-04-22T03:20:40.599Z,17.77
2018-04-22T03:23:08.259Z,18.43
2018-04-22T03:25:35.702Z,15.37
2018-04-22T03:28:03.165Z,19.83
2018-04-22T03:30:30.804Z,17.00
2018-04-22T03:32:58.247Z,14.60
2018-04-22T03:35:25.707Z,12.77
2018-04-22T03:37:53.146Z,12.07
2018-04-22T03:40:20.603Z,15.80
2018-04-22T03:42:48.047Z,16.00
2018-04-22T03:45:15.502Z,12.03
2018-04-22T03:47:42.981Z,13.50
2018-04-22T03:50:10.449Z,15.60
2018-04-22T03:52:37.918Z,16.13
2018-04-22T03:55:05.635Z,12.90
2018-04-22T03:57:33.091Z,19.80
2018-04-22T04:00:00.627Z,23.30
2018-04-22T04:02:28.072Z,16.30
2018-04-22T04:04:55.839Z,13.40
2018-04-22T04:07:23.288Z,15.67
2018-04-22T04:09:50.759Z,16.83
2018-04-22T04:12:18.195Z,18.77
2018-04-22T04:14:45.663Z,12.87
2018-04-22T04:17:13.312Z,17.50
2018-04-22T04:19:53.575Z,18.37
2018-04-22T04:22:32.879Z,12.97
2018-04-22T04:25:23.068Z,20.30
2018-04-22T04:27:50.512Z,16.67
2018-04-22T04:30:18.167Z,14.20
2018-04-22T04:32:45.629Z,14.63
2018-04-22T04:35:13.080Z,15.40
2018-04-22T04:37:40.551Z,18.37
2018-04-22T04:40:08.027Z,12.80
2018-04-22T04:42:35.558Z,11.97
2018-04-22T04:45:03.026Z,12.73
2018-04-22T04:47:30.463Z,15.03
2018-04-22T04:49:57.915Z,21.60
2018-04-22T04:52:25.468Z,15.50
2018-04-22T04:54:52.915Z,15.80
2018-04-22T04:57:20.373Z,15.37
2018-04-22T04:59:48.038Z,13.83
2018-04-22T05:02:15.515Z,17.53
2018-04-22T05:04:43.360Z,14.97
2018-04-22T05:07:10.819Z,14.57
2018-04-22T05:09:38.283Z,11.03
2018-04-22T05:12:05.737Z,19.37
2018-04-22T05:14:33.211Z,16.90
2018-04-22T05:17:00.656Z,18.03
2018-04-22T05:19:28.259Z,15.90
2018-04-22T05:21:55.733Z,17.67
2018-04-22T05:24:23.625Z,12.67
2018-04-22T05:26:51.032Z,17.83
2018-04-22T05:29:18.516Z,18.97
2018-04-22T05:31:46.754Z,19.63
2018-04-22T05:34:14.715Z,15.63
2018-04-22T05:36:42.315Z,17.03
2018-04-22T05:39:09.792Z,17.13
2018-04-22T05:41:37.250Z,15.07
2018-04-22T05:44:04.903Z,18.10
2018-04-22T05:46:32.364Z,17.57
2018-04-22T05:48:59.816Z,14.70
2018-04-22T05:51:27.461Z,18.20
2018-04-22T05:53:54.912Z,19.50
2018-04-22T05:56:22.362Z,10.53
2018-04-22T05:58:49.843Z,15.10
2018-04-22T06:01:17.325Z,17.57
2018-04-22T06:03:44.818Z,17.60
2018-04-22T06:06:12.276Z,17.20
2018-04-22T06:08:39.803Z,16.97
2018-04-22T06:11:07.208Z,14.27
2018-04-22T06:13:35.059Z,16.27
2018-04-22T06:16:02.507Z,16.20
2018-04-22T06:18:29.995Z,14.37
2018-04-22T06:20:58.028Z,16.83
2018-04-22T06:23:25.520Z,18.07
2018-04-22T06:25:52.958Z,18.00
2018-04-22T06:28:20.439Z,20.00
2018-04-22T06:30:47.864Z,16.67
2018-04-22T06:33:15.305Z,13.77
2018-04-22T06:35:43.524Z,15.90
2018-04-22T06:38:10.983Z,15.23
2018-04-22T06:40:38.763Z,18.10
2018-04-22T06:43:06.212Z,17.17
2018-04-22T06:45:33.827Z,17.07
2018-04-22T06:48:01.277Z,13.73
2018-04-22T06:50:28.716Z,17.27
2018-04-22T06:52:56.180Z,11.23
2018-04-22T06:55:23.635Z,14.67
2018-04-22T06:57:51.495Z,15.80
2018-04-22T07:00:18.943Z,12.87
2018-04-22T07:02:46.417Z,23.37
2018-04-22T07:05:13.860Z,13.10
2018-04-22T07:07:41.323Z,18.43
2018-04-22T07:10:08.775Z,16.43
2018-04-22T07:12:36.814Z,21.27
2018-04-22T07:15:04.263Z,17.20
2018-04-22T07:17:31.752Z,15.50
2018-04-22T07:19:59.212Z,14.83
2018-04-22T07:22:29.815Z,14.87
2018-04-22T07:24:57.276Z,14.77
2018-04-22T07:27:24.723Z,16.50
2018-04-22T07:29:52.195Z,15.93
2018-04-22T07:32:19.644Z,13.30
2018-04-22T07:34:47.098Z,13.17
2018-04-22T07:37:14.557Z,15.57
2018-04-22T07:39:42.540Z,14.60
2018-04-22T07:42:09.992Z,17.03
2018-04-22T07:44:37.438Z,14.87
2018-04-22T07:49:38.296Z,13.63
2018-04-22T07:52:06.117Z,16.43
2018-04-22T07:54:33.602Z,20.17
2018-04-22T07:57:01.048Z,15.77
2018-04-22T07:59:30.254Z,18.63
2018-04-22T08:01:57.718Z,19.07
2018-04-22T08:04:25.618Z,15.80
2018-04-22T08:06:53.050Z,16.53
2018-04-22T08:09:20.521Z,19.30
2018-04-22T08:11:49.968Z,13.00
2018-04-22T08:14:18.180Z,13.47
2018-04-22T08:16:45.638Z,12.87
2018-04-22T08:19:21.199Z,15.73
2018-04-22T08:21:48.652Z,16.90
2018-04-22T08:24:19.259Z,23.57
2018-04-22T08:26:47.266Z,15.67
2018-04-22T08:29:14.710Z,20.53
2018-04-22T08:31:42.185Z,14.37
2018-04-22T08:34:09.885Z,14.57
2018-04-22T08:36:37.379Z,16.90
2018-04-22T08:39:04.833Z,12.37
2018-04-22T08:41:32.294Z,14.07
2018-04-22T08:43:59.948Z,21.13
2018-04-22T08:46:27.388Z,12.13
2018-04-22T08:48:54.847Z,11.40
2018-04-22T08:51:22.320Z,12.60
2018-04-22T08:53:49.785Z,16.93
2018-04-22T08:56:17.227Z,11.13
2018-04-22T08:58:44.791Z,13.20
2018-04-22T09:01:12.517Z,13.43
2018-04-22T09:03:40.094Z,20.00
2018-04-22T09:06:07.549Z,12.77
2018-04-22T09:08:34.984Z,15.63
2018-04-22T09:11:03.203Z,17.03
2018-04-22T09:13:30.996Z,16.97
2018-04-22T09:15:58.455Z,14.50
2018-04-22T09:18:25.929Z,11.47
2018-04-22T09:20:53.376Z,11.90
2018-04-22T09:23:20.844Z,23.70
2018-04-22T09:25:48.298Z,11.53
2018-04-22T09:28:15.753Z,11.70
2018-04-22T09:30:43.194Z,12.90
2018-04-22T09:33:10.932Z,14.60
2018-04-22T09:35:38.330Z,13.20
2018-04-22T09:38:05.792Z,11.60
2018-04-22T09:40:33.284Z,11.63
2018-04-22T09:43:00.730Z,12.47
2018-04-22T09:45:28.205Z,11.20
2018-04-22T09:47:55.728Z,10.57
2018-04-22T09:50:23.422Z,9.73
2018-04-22T09:52:50.897Z,11.47
2018-04-22T09:55:18.367Z,10.23
2018-04-22T09:57:45.891Z,12.80
2018-04-22T10:00:19.067Z,14.40
2018-04-22T10:02:48.334Z,11.97
2018-04-22T10:05:15.793Z,11.10
2018-04-22T10:07:43.645Z,11.03
2018-04-22T10:10:11.101Z,11.03
2018-04-22T10:12:38.587Z,15.13
2018-04-22T10:15:06.036Z,12.27
2018-04-22T10:17:33.496Z,11.60
2018-04-22T10:20:01.463Z,10.73
2018-04-22T10:22:28.949Z,19.23
2018-04-22T10:24:56.464Z,15.63
2018-04-22T10:27:23.924Z,12.17
2018-04-22T10:29:51.731Z,11.83
2018-04-22T10:32:19.160Z,13.93
2018-04-22T10:34:46.640Z,10.40
2018-04-22T10:37:14.192Z,10.80
2018-04-22T10:39:42.080Z,12.63
2018-04-22T10:42:09.513Z,13.20
2018-04-22T10:44:37.300Z,11.00
2018-04-22T10:47:04.751Z,13.10
2018-04-22T10:49:32.197Z,12.47
2018-04-22T10:51:59.655Z,12.37
2018-04-22T10:54:27.371Z,10.30
2018-04-22T10:56:54.923Z,15.50
2018-04-22T10:59:22.357Z,11.53
2018-04-22T11:01:49.797Z,9.10
2018-04-22T11:04:24.143Z,9.33
2018-04-22T11:06:53.189Z,9.03
2018-04-22T11:09:20.639Z,9.43
2018-04-22T11:11:48.107Z,9.83
2018-04-22T11:14:15.603Z,12.20
2018-04-22T11:16:42.993Z,10.00
2018-04-22T11:19:10.483Z,11.43
2018-04-22T11:21:37.926Z,14.20
2018-04-22T11:24:05.362Z,8.57
2018-04-22T11:26:32.818Z,10.90
2018-04-22T11:29:00.260Z,9.77
2018-04-22T11:31:27.731Z,10.33
2018-04-22T11:33:55.544Z,9.03
2018-04-22T11:36:23.012Z,10.17
2018-04-22T11:38:50.455Z,9.77
2018-04-22T11:41:17.986Z,8.23
2018-04-22T11:43:45.444Z,9.37
2018-04-22T11:46:12.884Z,9.67
2018-04-22T11:48:41.114Z,8.00
2018-04-22T11:51:08.627Z,11.70
2018-04-22T11:53:36.092Z,8.53
2018-04-22T11:56:03.511Z,9.23
2018-04-22T11:58:31.719Z,8.40
2018-04-22T12:00:59.277Z,7.80
2018-04-22T12:03:26.720Z,8.10
2018-04-22T12:05:54.494Z,7.90
2018-04-22T12:08:21.954Z,8.37
2018-04-22T12:10:49.408Z,5.13
2018-04-22T12:13:16.977Z,4.47
2018-04-22T12:15:44.540Z,5.57
2018-04-22T12:18:11.988Z,5.90
2018-04-22T12:20:40.510Z,5.53
2018-04-22T12:23:08.265Z,5.93
2018-04-22T12:25:35.740Z,5.23
2018-04-22T12:28:03.214Z,7.50
2018-04-22T12:30:31.070Z,9.70
2018-04-22T12:32:58.560Z,4.63
2018-04-22T12:35:26.180Z,5.77
2018-04-22T12:37:53.663Z,5.13
2018-04-22T12:40:21.116Z,9.83
2018-04-22T12:42:48.662Z,5.27
2018-04-22T12:45:16.099Z,5.87
2018-04-22T12:47:43.538Z,9.23
2018-04-22T12:50:10.988Z,9.13
2018-04-22T12:52:39.930Z,4.60
2018-04-22T12:55:07.384Z,4.23
2018-04-22T12:57:34.832Z,7.90
2018-04-22T13:00:02.640Z,4.77
2018-04-22T13:02:30.099Z,4.60
2018-04-22T13:04:57.549Z,4.00
2018-04-22T13:07:24.995Z,7.03
2018-04-22T13:09:52.500Z,6.30
2018-04-22T13:12:20.719Z,5.10
2018-04-22T13:14:48.245Z,3.50
2018-04-22T13:17:15.728Z,5.67
2018-04-22T13:19:43.231Z,9.03
2018-04-22T13:22:10.648Z,7.93
2018-04-22T13:24:38.315Z,4.70
2018-04-22T13:27:05.772Z,5.13
2018-04-22T13:29:33.207Z,4.43
2018-04-22T13:32:00.665Z,5.83
2018-04-22T13:34:28.125Z,5.00
2018-04-22T13:36:55.559Z,5.33
2018-04-22T13:39:23.000Z,6.90
2018-04-22T13:41:50.470Z,4.87
2018-04-22T13:44:17.896Z,4.87
2018-04-22T13:46:45.359Z,4.40
2018-04-22T13:49:14.402Z,7.10
2018-04-22T13:51:42.625Z,4.23
2018-04-22T13:54:10.061Z,4.80
2018-04-22T13:56:37.508Z,5.70
2018-04-22T13:59:04.946Z,7.23
2018-04-22T14:01:32.445Z,10.43
2018-04-22T14:04:00.137Z,5.13
2018-04-22T14:06:27.579Z,5.57
2018-04-22T14:08:55.045Z,4.53
2018-04-22T14:11:22.503Z,3.40
2018-04-22T14:13:49.932Z,7.97
2018-04-22T14:16:17.396Z,10.67
2018-04-22T14:18:44.832Z,4.30
2018-04-22T14:21:12.287Z,7.30
2018-04-22T14:23:39.802Z,4.80
2018-04-22T14:26:07.248Z,5.03
2018-04-22T14:28:35.161Z,5.57
2018-04-22T14:31:02.607Z,3.67
2018-04-22T14:33:30.063Z,4.40
2018-04-22T14:35:57.509Z,4.10
2018-04-22T14:38:24.959Z,4.43
2018-04-22T14:40:52.651Z,5.40
2018-04-22T14:43:20.103Z,3.87
2018-04-22T14:45:59.277Z,4.10
2018-04-22T14:48:26.682Z,2.50
2018-04-22T14:50:54.270Z,3.20
2018-04-22T14:53:21.704Z,3.20
2018-04-22T14:55:49.148Z,2.80
2018-04-22T14:58:16.587Z,7.03
2018-04-22T15:00:44.051Z,9.30
2018-04-22T15:03:11.508Z,2.53
2018-04-22T15:05:38.956Z,2.90
2018-04-22T15:08:06.396Z,2.00
2018-04-22T15:10:34.202Z,2.80
2018-04-22T15:13:02.055Z,3.50
2018-04-22T15:15:29.504Z,2.97
2018-04-22T15:17:56.947Z,2.77
2018-04-22T15:20:24.760Z,2.57
2018-04-22T15:22:52.215Z,3.87
2018-04-22T15:25:19.695Z,5.70
2018-04-22T15:27:47.158Z,2.93
2018-04-22T15:30:14.601Z,2.40
2018-04-22T15:32:42.471Z,7.03
2018-04-22T15:35:10.133Z,3.00
2018-04-22T15:37:37.567Z,5.10
2018-04-22T15:40:05.023Z,2.60
2018-04-22T15:42:32.543Z,2.23
2018-04-22T15:45:00.080Z,5.60
2018-04-22T15:47:27.536Z,2.57
2018-04-22T15:49:55.012Z,3.23
2018-04-22T15:52:22.988Z,9.60
2018-04-22T15:54:50.440Z,2.33
2018-04-22T15:57:17.888Z,2.90
2018-04-22T15:59:45.312Z,3.37
2018-04-22T16:02:13.536Z,4.00
2018-04-22T16:04:41.047Z,2.37
2018-04-22T16:07:08.482Z,3.70
2018-04-22T16:09:35.921Z,2.27
2018-04-22T16:12:03.380Z,1.83
2018-04-22T16:14:30.838Z,1.70
2018-04-22T16:16:58.438Z,4.47
2018-04-22T16:19:25.896Z,4.50
2018-04-22T16:21:53.325Z,5.17
2018-04-22T16:24:20.766Z,6.27
2018-04-22T16:26:48.472Z,3.93
2018-04-22T16:29:15.933Z,2.10
2018-04-22T16:31:43.393Z,3.67
2018-04-22T16:34:11.146Z,6.47
2018-04-22T16:36:38.572Z,1.90
2018-04-22T16:39:06.119Z,2.57
2018-04-22T16:41:33.654Z,3.50
2018-04-22T16:44:01.163Z,3.23
2018-04-22T16:46:28.677Z,2.10
2018-04-22T16:48:56.203Z,2.87
2018-04-22T16:51:23.742Z,6.10
2018-04-22T16:53:51.364Z,4.30
2018-04-22T16:56:18.795Z,6.33
2018-04-22T16:58:46.250Z,4.00
2018-04-22T17:01:13.794Z,2.77
2018-04-22T17:03:41.215Z,7.40
2018-04-22T17:06:08.679Z,4.43
2018-04-22T17:08:36.165Z,1.87
2018-04-22T17:11:03.570Z,7.43
2018-04-22T17:13:31.045Z,4.00
2018-04-22T17:15:58.722Z,3.40
2018-04-22T17:18:26.158Z,2.53
2018-04-22T17:20:53.603Z,2.80
2018-04-22T17:23:21.239Z,2.57
2018-04-22T17:25:48.684Z,2.80
2018-04-22T17:28:16.122Z,3.23
2018-04-22T17:30:43.590Z,2.93
2018-04-22T17:33:11.027Z,2.53
2018-04-22T17:35:38.523Z,2.30
2018-04-22T17:38:06.085Z,5.40
2018-04-22T17:40:33.516Z,2.60
2018-04-22T17:43:00.964Z,6.03
2018-04-22T17:45:28.393Z,2.93
2018-04-22T17:47:55.930Z,2.93
2018-04-22T17:50:23.391Z,2.10
2018-04-22T17:52:50.865Z,4.60
2018-04-22T17:55:18.325Z,2.97
2018-04-22T17:57:46.093Z,3.50
2018-04-22T18:00:13.548Z,6.73
2018-04-22T18:02:41.009Z,2.63
2018-04-22T18:05:08.683Z,2.30
2018-04-22T18:07:36.137Z,4.23
2018-04-22T18:10:03.596Z,2.30
2018-04-22T18:12:31.083Z,3.73
2018-04-22T18:14:58.530Z,5.40
2018-04-22T18:17:26.003Z,3.27
2018-04-22T18:19:53.460Z,3.60
2018-04-22T18:22:20.904Z,14.60
2018-04-22T18:24:48.360Z,6.00
2018-04-22T18:27:15.817Z,2.93
2018-04-22T18:29:43.480Z,3.10
2018-04-22T18:32:10.946Z,2.60
2018-04-22T18:34:38.392Z,3.60
2018-04-22T18:37:05.825Z,2.80
2018-04-22T18:39:34.037Z,6.37
2018-04-22T18:42:01.475Z,4.27
2018-04-22T18:44:28.944Z,3.23
2018-04-22T18:46:56.544Z,3.07
2018-04-22T18:49:24.389Z,2.53
2018-04-22T18:51:51.937Z,4.67
2018-04-22T18:54:19.382Z,2.93
2018-04-22T18:56:46.844Z,3.00
2018-04-22T18:59:14.681Z,3.63
2018-04-22T19:01:42.131Z,9.43
2018-04-22T19:04:10.013Z,6.23
2018-04-22T19:06:37.699Z,3.17
2018-04-22T19:09:05.941Z,2.57
2018-04-22T19:11:33.440Z,2.47
2018-04-22T19:14:00.908Z,2.00
2018-04-22T19:16:28.360Z,4.93
2018-04-22T19:18:55.817Z,2.13
2018-04-22T19:21:23.480Z,5.07
2018-04-22T19:23:51.894Z,2.27
2018-04-22T19:26:20.445Z,4.57
2018-04-22T19:28:47.878Z,3.80
2018-04-22T19:31:15.333Z,2.37
2018-04-22T19:33:43.072Z,3.33
2018-04-22T19:36:10.796Z,2.30
2018-04-22T19:38:38.212Z,4.23
2018-04-22T19:41:06.751Z,2.83
2018-04-22T19:43:34.203Z,5.43
2018-04-22T19:46:01.648Z,5.43
2018-04-22T19:48:29.089Z,3.83
2018-04-22T19:50:57.298Z,3.83
2018-04-22T19:53:24.811Z,9.70
2018-04-22T19:55:52.328Z,3.63
2018-04-22T19:58:19.776Z,2.33
2018-04-22T20:00:47.216Z,4.03
2018-04-22T20:03:14.660Z,2.33
2018-04-22T20:05:42.507Z,3.83
2018-04-22T20:08:09.957Z,4.30
2018-04-22T20:10:37.411Z,4.53
2018-04-22T20:13:04.896Z,3.40
2018-04-22T20:15:32.406Z,5.13
2018-04-22T20:17:59.794Z,4.17
2018-04-22T20:20:27.235Z,6.20
2018-04-22T20:22:54.687Z,2.67
2018-04-22T20:25:22.212Z,2.80
2018-04-22T20:27:49.739Z,2.47
2018-04-22T20:30:17.401Z,2.70
2018-04-22T20:32:44.844Z,10.23
2018-04-22T20:35:12.301Z,7.10
2018-04-22T20:37:39.740Z,5.07
2018-04-22T20:40:07.196Z,6.37
2018-04-22T20:42:34.877Z,3.97
2018-04-22T20:45:02.264Z,3.97
2018-04-22T20:47:29.706Z,3.37
2018-04-22T20:49:57.519Z,10.50
2018-04-22T20:52:25.417Z,5.27
2018-04-22T20:54:52.858Z,3.83
2018-04-22T20:57:20.311Z,6.10
2018-04-22T20:59:47.770Z,5.90
2018-04-22T21:02:15.574Z,7.03
2018-04-22T21:04:43.100Z,3.53
2018-04-22T21:07:10.555Z,4.50
2018-04-22T21:09:38.028Z,4.03
2018-04-22T21:12:05.485Z,7.10
2018-04-22T21:14:33.032Z,2.43
2018-04-22T21:17:00.467Z,2.40
2018-04-22T21:19:28.076Z,3.37
2018-04-22T21:21:55.689Z,7.80
2018-04-22T21:24:23.115Z,8.40
2018-04-22T21:26:50.821Z,7.60
2018-04-22T21:29:18.330Z,6.50
2018-04-22T21:31:45.776Z,7.83
2018-04-22T21:34:18.801Z,3.60
2018-04-22T21:36:46.224Z,3.27
2018-04-22T21:39:13.676Z,4.37
2018-04-22T21:41:41.119Z,4.30
2018-04-22T21:44:08.556Z,4.27
2018-04-22T21:46:36.012Z,5.33
2018-04-22T21:49:03.452Z,5.70
2018-04-22T21:51:30.924Z,4.37
2018-04-22T21:53:58.376Z,3.27
2018-04-22T21:56:25.805Z,3.13
2018-04-22T21:58:53.260Z,2.60
2018-04-22T22:01:20.709Z,3.90
2018-04-22T22:03:48.160Z,3.50
2018-04-22T22:06:16.008Z,7.60
2018-04-22T22:08:43.478Z,3.17
2018-04-22T22:11:10.938Z,3.93
2018-04-22T22:13:38.380Z,8.43
2018-04-22T22:16:05.821Z,8.43
2018-04-22T22:18:33.405Z,7.63
2018-04-22T22:21:00.841Z,3.27
2018-04-22T22:23:28.293Z,3.57
2018-04-22T22:25:55.731Z,5.90
2018-04-22T22:28:23.375Z,2.83
2018-04-22T22:30:50.859Z,8.20
2018-04-22T22:33:18.304Z,3.60
2018-04-22T22:35:45.775Z,4.63
2018-04-22T22:38:13.208Z,2.70
2018-04-22T22:40:40.984Z,3.00
2018-04-22T22:43:08.467Z,8.70
2018-04-22T22:45:35.910Z,3.87
2018-04-22T22:48:03.572Z,3.20
2018-04-22T22:50:31.032Z,4.40
2018-04-22T22:52:58.467Z,5.43
2018-04-22T22:55:25.910Z,2.87
2018-04-22T22:57:53.367Z,3.83
2018-04-22T23:00:21.544Z,2.67
2018-04-22T23:02:49.798Z,3.60
2018-04-22T23:05:17.227Z,3.90
2018-04-22T23:07:44.709Z,15.37
2018-04-22T23:10:12.180Z,4.90
2018-04-22T23:12:39.642Z,4.30
2018-04-22T23:15:07.106Z,14.17
2018-04-22T23:17:34.567Z,8.83
2018-04-22T23:20:02.037Z,6.80
2018-04-22T23:22:29.487Z,6.03
2018-04-22T23:24:56.952Z,3.60
2018-04-22T23:27:24.498Z,3.93
2018-04-22T23:29:52.268Z,8.43
2018-04-22T23:32:19.746Z,5.13
2018-04-22T23:34:47.431Z,4.37
2018-04-22T23:37:14.873Z,11.07
2018-04-22T23:39:42.303Z,2.23
2018-04-22T23:42:09.781Z,4.33
2018-04-22T23:44:37.239Z,6.47
2018-04-22T23:47:04.724Z,9.73
2018-04-22T23:49:32.194Z,2.97
2018-04-22T23:51:59.623Z,4.40
2018-04-22T23:54:27.189Z,3.83
2018-04-22T23:56:54.643Z,8.90
2018-04-22T23:59:22.111Z,3.20
